Portada
METAR-TAF:

METAR-TAF

Aeroports :

Estrasburg, França

latitud: 48-33N, longitud: 007-38E, altitud: 153 m

Observació

L'informe es va fer fa 16 minuts, a les 04:30 UTC
Vent 11 kt del Sud/Sud-Oest
Temperatura 9°C
Humitat 81%
Pressió 1015 hPa
Visibilitat 10 km o més
Cel ennuvolat a una alçada de 3100 ft
Cel cobert a una alçada de 4000 ft

METAR: LFST 070430Z AUTO 20011KT 9999 BKN031 OVC040 09/06 Q1015 NOSIG

Hora: 05:46 (04:46 UTC)

Pronòstic

L'informe es va fer fa 5 hores i 13 minuts, a les 23:33 UTC
Pronòstic vàlid del 07 a les 00 UTC al 07 a les 24 UTC
Vent 12 kt del Sud/Sud-Oest
Visibilitat 10 km o més
Cel ennuvolat a una alçada de 3500 ft
Temporalment
l' 07 a les 00 UTC al 07 a les 06 UTC
pluja
Temporalment
l' 07 a les 00 UTC al 07 a les 04 UTC
Vent 15 kt del Sud-Oest amb ràfegues de 25 kt
Probabilitat 40%
l' 07 a les 13 UTC al 07 a les 19 UTC
Vent 6 kt del Oest

TAF: LFST 062333Z 0700/0724 20012KT 9999 BKN035 TEMPO 0700/0706 -RA TEMPO 0700/0704 22015G25KT PROB40 0713/0719 26006KT

Observacions i pronòstics meteorològics de més de 4000 aeroports (METAR i TAF).

Les estacions disponibles són els punts grocs i vermells al mapa.

Posi el ratolí al punt desitjat per veure el nom de l'estació.

Feu clic per veure les observacions i els pronòstics meteorològics.

Per canviar el mapa: feu clic els botons verds amb una creu de color negre per apropar; al botó verd amb un guió per allunyar la imatge; o en les fletxes verdes per a mapes adjacents.


METAR-TAF: